Terminal Aerodrome Forecast
Issued by NWS Green Bay, WI

Home | Current Version | Previous Version | Text Only | Print | Product List | Glossary On
Versions: 1 2 3 4 5 6 7 8 9 10 11 12 13 14 15 16 17 18 19 20 21 22 23 24 25 26 27 28 29
958
FTUS43 KGRB 211138
TAFGRB
TAF
KGRB 211138Z 2112/2212 26010G18KT P6SM SCT012 BKN025
      TEMPO 2112/2115 SCT008 BKN012
     FM211500 28008KT P6SM SCT025 SCT100
     FM211800 25007KT P6SM FEW100
     FM212200 22006KT P6SM SKC
     FM220800 21005KT P6SM SCT100 WS020/24035KT=

USA.gov is the U.S. government's official web portal to all federal, state and local government web resources and services.